sensor_id;sensor_type;location;lat;lon;timestamp;P1;durP1;ratioP1;P2;durP2;ratioP2
51286;SDS011;37364;46.974;18.916;2023-05-18T00:02:03;8.20;;;6.18;;
51286;SDS011;37364;46.974;18.916;2023-05-18T00:04:35;6.13;;;5.22;;
51286;SDS011;37364;46.974;18.916;2023-05-18T00:07:08;9.77;;;6.32;;
51286;SDS011;37364;46.974;18.916;2023-05-18T00:09:40;11.60;;;7.03;;
51286;SDS011;37364;46.974;18.916;2023-05-18T00:12:10;13.32;;;6.90;;
51286;SDS011;37364;46.974;18.916;2023-05-18T00:14:41;8.05;;;6.03;;
51286;SDS011;37364;46.974;18.916;2023-05-18T00:17:11;6.65;;;5.82;;
51286;SDS011;37364;46.974;18.916;2023-05-18T00:19:42;15.00;;;6.95;;
51286;SDS011;37364;46.974;18.916;2023-05-18T00:22:18;17.33;;;7.80;;
51286;SDS011;37364;46.974;18.916;2023-05-18T00:24:49;8.05;;;5.97;;
51286;SDS011;37364;46.974;18.916;2023-05-18T00:27:20;11.82;;;7.50;;
51286;SDS011;37364;46.974;18.916;2023-05-18T00:29:52;8.23;;;6.93;;
51286;SDS011;37364;46.974;18.916;2023-05-18T00:32:23;8.73;;;6.43;;
51286;SDS011;37364;46.974;18.916;2023-05-18T00:34:53;17.35;;;8.65;;
51286;SDS011;37364;46.974;18.916;2023-05-18T00:37:27;10.25;;;6.32;;
51286;SDS011;37364;46.974;18.916;2023-05-18T00:39:57;10.63;;;6.18;;
51286;SDS011;37364;46.974;18.916;2023-05-18T00:42:27;6.22;;;5.18;;
51286;SDS011;37364;46.974;18.916;2023-05-18T00:44:58;8.75;;;6.05;;
51286;SDS011;37364;46.974;18.916;2023-05-18T00:47:28;8.13;;;5.00;;
51286;SDS011;37364;46.974;18.916;2023-05-18T00:49:59;32.55;;;6.00;;
51286;SDS011;37364;46.974;18.916;2023-05-18T00:52:33;5.88;;;4.95;;
51286;SDS011;37364;46.974;18.916;2023-05-18T00:55:05;7.78;;;6.00;;
51286;SDS011;37364;46.974;18.916;2023-05-18T00:57:40;9.15;;;6.88;;
51286;SDS011;37364;46.974;18.916;2023-05-18T01:00:11;15.68;;;5.88;;
51286;SDS011;37364;46.974;18.916;2023-05-18T01:02:43;9.60;;;6.45;;
51286;SDS011;37364;46.974;18.916;2023-05-18T01:05:17;6.68;;;5.47;;
51286;SDS011;37364;46.974;18.916;2023-05-18T01:07:51;6.40;;;5.75;;
51286;SDS011;37364;46.974;18.916;2023-05-18T01:10:22;8.02;;;6.50;;
51286;SDS011;37364;46.974;18.916;2023-05-18T01:12:52;6.25;;;5.50;;
51286;SDS011;37364;46.974;18.916;2023-05-18T01:15:28;7.20;;;5.70;;
51286;SDS011;37364;46.974;18.916;2023-05-18T01:18:05;11.07;;;5.28;;
51286;SDS011;37364;46.974;18.916;2023-05-18T01:20:42;7.25;;;5.30;;
51286;SDS011;37364;46.974;18.916;2023-05-18T01:23:28;6.32;;;5.18;;
51286;SDS011;37364;46.974;18.916;2023-05-18T01:26:26;7.88;;;5.60;;
51286;SDS011;37364;46.974;18.916;2023-05-18T01:29:00;9.38;;;6.30;;
51286;SDS011;37364;46.974;18.916;2023-05-18T01:31:34;11.73;;;5.40;;
51286;SDS011;37364;46.974;18.916;2023-05-18T01:34:05;9.00;;;6.30;;
51286;SDS011;37364;46.974;18.916;2023-05-18T01:36:35;6.72;;;5.55;;
51286;SDS011;37364;46.974;18.916;2023-05-18T01:39:05;6.45;;;5.68;;
51286;SDS011;37364;46.974;18.916;2023-05-18T01:41:42;12.73;;;5.53;;
51286;SDS011;37364;46.974;18.916;2023-05-18T01:44:22;9.02;;;6.22;;
51286;SDS011;37364;46.974;18.916;2023-05-18T01:46:58;9.35;;;6.40;;
51286;SDS011;37364;46.974;18.916;2023-05-18T01:49:34;8.07;;;5.38;;
51286;SDS011;37364;46.974;18.916;2023-05-18T01:52:08;8.45;;;5.68;;
51286;SDS011;37364;46.974;18.916;2023-05-18T01:54:41;7.32;;;6.25;;
51286;SDS011;37364;46.974;18.916;2023-05-18T01:57:17;9.18;;;5.80;;
51286;SDS011;37364;46.974;18.916;2023-05-18T01:59:52;9.77;;;7.18;;
51286;SDS011;37364;46.974;18.916;2023-05-18T02:02:26;10.93;;;8.13;;
51286;SDS011;37364;46.974;18.916;2023-05-18T02:04:57;7.28;;;5.60;;
51286;SDS011;37364;46.974;18.916;2023-05-18T02:07:27;9.98;;;6.47;;
51286;SDS011;37364;46.974;18.916;2023-05-18T02:09:57;18.15;;;8.38;;
51286;SDS011;37364;46.974;18.916;2023-05-18T02:12:32;11.02;;;6.38;;
51286;SDS011;37364;46.974;18.916;2023-05-18T02:15:03;11.07;;;6.90;;
51286;SDS011;37364;46.974;18.916;2023-05-18T02:17:36;8.68;;;6.43;;
51286;SDS011;37364;46.974;18.916;2023-05-18T02:20:07;7.28;;;6.53;;
51286;SDS011;37364;46.974;18.916;2023-05-18T02:22:38;7.22;;;6.47;;
51286;SDS011;37364;46.974;18.916;2023-05-18T02:25:08;10.48;;;6.47;;
51286;SDS011;37364;46.974;18.916;2023-05-18T02:27:42;7.93;;;6.07;;
51286;SDS011;37364;46.974;18.916;2023-05-18T02:30:13;7.07;;;6.35;;
51286;SDS011;37364;46.974;18.916;2023-05-18T02:32:44;7.30;;;5.85;;
51286;SDS011;37364;46.974;18.916;2023-05-18T02:35:15;6.90;;;5.72;;
51286;SDS011;37364;46.974;18.916;2023-05-18T02:37:45;7.15;;;6.07;;
51286;SDS011;37364;46.974;18.916;2023-05-18T02:40:16;15.18;;;7.38;;
51286;SDS011;37364;46.974;18.916;2023-05-18T02:42:49;10.65;;;7.22;;
51286;SDS011;37364;46.974;18.916;2023-05-18T02:45:20;8.18;;;6.93;;
51286;SDS011;37364;46.974;18.916;2023-05-18T02:47:53;8.98;;;7.00;;
51286;SDS011;37364;46.974;18.916;2023-05-18T02:50:24;12.50;;;7.80;;
51286;SDS011;37364;46.974;18.916;2023-05-18T02:52:55;8.82;;;7.63;;
51286;SDS011;37364;46.974;18.916;2023-05-18T02:55:25;11.10;;;7.55;;
51286;SDS011;37364;46.974;18.916;2023-05-18T02:58:22;9.80;;;7.72;;
51286;SDS011;37364;46.974;18.916;2023-05-18T03:01:17;15.27;;;9.10;;
51286;SDS011;37364;46.974;18.916;2023-05-18T03:03:51;9.57;;;7.38;;
51286;SDS011;37364;46.974;18.916;2023-05-18T03:06:24;10.40;;;9.07;;
51286;SDS011;37364;46.974;18.916;2023-05-18T03:08:56;10.57;;;8.77;;
51286;SDS011;37364;46.974;18.916;2023-05-18T03:11:33;12.52;;;8.88;;
51286;SDS011;37364;46.974;18.916;2023-05-18T03:14:06;18.70;;;8.80;;
51286;SDS011;37364;46.974;18.916;2023-05-18T03:16:36;15.83;;;9.20;;
51286;SDS011;37364;46.974;18.916;2023-05-18T03:19:11;18.30;;;9.27;;
51286;SDS011;37364;46.974;18.916;2023-05-18T03:21:42;13.50;;;8.98;;
51286;SDS011;37364;46.974;18.916;2023-05-18T03:24:15;18.98;;;8.65;;
51286;SDS011;37364;46.974;18.916;2023-05-18T03:26:48;14.27;;;8.90;;
51286;SDS011;37364;46.974;18.916;2023-05-18T03:29:23;14.25;;;8.95;;
51286;SDS011;37364;46.974;18.916;2023-05-18T03:31:57;9.88;;;8.07;;
51286;SDS011;37364;46.974;18.916;2023-05-18T03:34:28;12.35;;;8.65;;
51286;SDS011;37364;46.974;18.916;2023-05-18T03:36:58;17.50;;;9.20;;
51286;SDS011;37364;46.974;18.916;2023-05-18T03:39:30;12.00;;;8.75;;
51286;SDS011;37364;46.974;18.916;2023-05-18T03:42:01;12.50;;;9.68;;
51286;SDS011;37364;46.974;18.916;2023-05-18T03:44:34;14.38;;;10.18;;
51286;SDS011;37364;46.974;18.916;2023-05-18T03:49:35;14.68;;;9.88;;
51286;SDS011;37364;46.974;18.916;2023-05-18T03:52:06;13.18;;;11.30;;
51286;SDS011;37364;46.974;18.916;2023-05-18T03:54:37;13.50;;;9.90;;
51286;SDS011;37364;46.974;18.916;2023-05-18T03:57:08;11.02;;;9.88;;
51286;SDS011;37364;46.974;18.916;2023-05-18T03:59:41;12.07;;;10.55;;
51286;SDS011;37364;46.974;18.916;2023-05-18T04:02:12;18.45;;;9.88;;
51286;SDS011;37364;46.974;18.916;2023-05-18T04:04:43;15.30;;;11.48;;
51286;SDS011;37364;46.974;18.916;2023-05-18T04:07:14;11.52;;;10.15;;
51286;SDS011;37364;46.974;18.916;2023-05-18T04:09:47;16.55;;;11.13;;
51286;SDS011;37364;46.974;18.916;2023-05-18T04:12:18;13.50;;;10.27;;
51286;SDS011;37364;46.974;18.916;2023-05-18T04:14:51;14.35;;;10.57;;
51286;SDS011;37364;46.974;18.916;2023-05-18T04:17:22;14.80;;;10.27;;
51286;SDS011;37364;46.974;18.916;2023-05-18T04:19:52;16.10;;;11.85;;
51286;SDS011;37364;46.974;18.916;2023-05-18T04:22:22;13.63;;;10.55;;
51286;SDS011;37364;46.974;18.916;2023-05-18T04:24:55;18.40;;;10.68;;
51286;SDS011;37364;46.974;18.916;2023-05-18T04:27:27;14.50;;;11.20;;
51286;SDS011;37364;46.974;18.916;2023-05-18T04:30:00;16.40;;;10.30;;
51286;SDS011;37364;46.974;18.916;2023-05-18T04:32:31;14.52;;;10.93;;
51286;SDS011;37364;46.974;18.916;2023-05-18T04:35:02;15.23;;;11.35;;
51286;SDS011;37364;46.974;18.916;2023-05-18T04:37:33;16.00;;;11.52;;
51286;SDS011;37364;46.974;18.916;2023-05-18T04:40:09;19.55;;;11.60;;
51286;SDS011;37364;46.974;18.916;2023-05-18T04:42:44;22.63;;;12.48;;
51286;SDS011;37364;46.974;18.916;2023-05-18T04:45:27;11.40;;;9.98;;
51286;SDS011;37364;46.974;18.916;2023-05-18T04:48:00;14.63;;;10.82;;
51286;SDS011;37364;46.974;18.916;2023-05-18T04:50:30;16.40;;;11.52;;
51286;SDS011;37364;46.974;18.916;2023-05-18T04:53:04;14.45;;;12.02;;
51286;SDS011;37364;46.974;18.916;2023-05-18T04:55:36;20.52;;;11.52;;
51286;SDS011;37364;46.974;18.916;2023-05-18T04:58:10;14.80;;;10.43;;
51286;SDS011;37364;46.974;18.916;2023-05-18T05:00:44;13.95;;;10.43;;
51286;SDS011;37364;46.974;18.916;2023-05-18T05:03:14;17.23;;;10.70;;
51286;SDS011;37364;46.974;18.916;2023-05-18T05:05:45;19.85;;;13.05;;
51286;SDS011;37364;46.974;18.916;2023-05-18T05:08:15;21.80;;;12.55;;
51286;SDS011;37364;46.974;18.916;2023-05-18T05:10:46;15.15;;;11.55;;
51286;SDS011;37364;46.974;18.916;2023-05-18T05:13:19;15.02;;;11.65;;
51286;SDS011;37364;46.974;18.916;2023-05-18T05:15:52;15.05;;;11.30;;
51286;SDS011;37364;46.974;18.916;2023-05-18T05:18:24;16.92;;;12.55;;
51286;SDS011;37364;46.974;18.916;2023-05-18T05:20:54;17.63;;;13.18;;
51286;SDS011;37364;46.974;18.916;2023-05-18T05:23:25;17.77;;;11.80;;
51286;SDS011;37364;46.974;18.916;2023-05-18T05:25:56;27.85;;;13.68;;
51286;SDS011;37364;46.974;18.916;2023-05-18T05:28:28;18.42;;;14.10;;
51286;SDS011;37364;46.974;18.916;2023-05-18T05:31:01;19.08;;;13.07;;
51286;SDS011;37364;46.974;18.916;2023-05-18T05:33:32;17.77;;;13.13;;
51286;SDS011;37364;46.974;18.916;2023-05-18T05:36:04;15.25;;;11.52;;
51286;SDS011;37364;46.974;18.916;2023-05-18T05:38:34;17.23;;;12.32;;
51286;SDS011;37364;46.974;18.916;2023-05-18T05:41:05;22.10;;;13.75;;
51286;SDS011;37364;46.974;18.916;2023-05-18T05:43:36;16.58;;;12.32;;
51286;SDS011;37364;46.974;18.916;2023-05-18T05:46:09;23.65;;;12.75;;
51286;SDS011;37364;46.974;18.916;2023-05-18T05:48:39;18.43;;;12.40;;
51286;SDS011;37364;46.974;18.916;2023-05-18T05:51:10;14.40;;;11.80;;
51286;SDS011;37364;46.974;18.916;2023-05-18T05:53:41;17.13;;;12.13;;
51286;SDS011;37364;46.974;18.916;2023-05-18T05:56:15;27.15;;;11.77;;
51286;SDS011;37364;46.974;18.916;2023-05-18T05:58:46;18.95;;;13.25;;
51286;SDS011;37364;46.974;18.916;2023-05-18T06:01:18;39.08;;;13.00;;
51286;SDS011;37364;46.974;18.916;2023-05-18T06:03:49;18.80;;;12.10;;
51286;SDS011;37364;46.974;18.916;2023-05-18T06:06:20;18.30;;;13.13;;
51286;SDS011;37364;46.974;18.916;2023-05-18T06:08:50;16.17;;;12.55;;
51286;SDS011;37364;46.974;18.916;2023-05-18T06:11:21;16.25;;;13.20;;
51286;SDS011;37364;46.974;18.916;2023-05-18T06:13:52;15.68;;;12.25;;
51286;SDS011;37364;46.974;18.916;2023-05-18T06:16:26;16.23;;;12.00;;
51286;SDS011;37364;46.974;18.916;2023-05-18T06:18:58;14.45;;;12.02;;
51286;SDS011;37364;46.974;18.916;2023-05-18T06:21:29;15.48;;;11.80;;
51286;SDS011;37364;46.974;18.916;2023-05-18T06:24:01;19.88;;;12.88;;
51286;SDS011;37364;46.974;18.916;2023-05-18T06:26:42;17.88;;;11.80;;
51286;SDS011;37364;46.974;18.916;2023-05-18T06:29:35;13.93;;;12.07;;
51286;SDS011;37364;46.974;18.916;2023-05-18T06:32:27;14.68;;;11.65;;
51286;SDS011;37364;46.974;18.916;2023-05-18T06:34:59;17.80;;;14.00;;
51286;SDS011;37364;46.974;18.916;2023-05-18T06:37:30;16.30;;;12.38;;
51286;SDS011;37364;46.974;18.916;2023-05-18T06:40:01;17.20;;;12.10;;
51286;SDS011;37364;46.974;18.916;2023-05-18T06:42:34;19.08;;;11.80;;
51286;SDS011;37364;46.974;18.916;2023-05-18T06:45:27;18.50;;;11.55;;
51286;SDS011;37364;46.974;18.916;2023-05-18T06:48:13;17.70;;;12.85;;
51286;SDS011;37364;46.974;18.916;2023-05-18T06:50:44;20.23;;;13.17;;
51286;SDS011;37364;46.974;18.916;2023-05-18T06:53:14;17.05;;;13.15;;
51286;SDS011;37364;46.974;18.916;2023-05-18T06:55:44;23.60;;;16.70;;
51286;SDS011;37364;46.974;18.916;2023-05-18T06:58:15;15.50;;;11.68;;
51286;SDS011;37364;46.974;18.916;2023-05-18T07:00:46;18.58;;;12.23;;
51286;SDS011;37364;46.974;18.916;2023-05-18T07:03:19;13.25;;;11.85;;
51286;SDS011;37364;46.974;18.916;2023-05-18T07:05:50;12.67;;;8.90;;
51286;SDS011;37364;46.974;18.916;2023-05-18T07:08:20;13.13;;;11.25;;
51286;SDS011;37364;46.974;18.916;2023-05-18T07:10:51;17.92;;;9.98;;
51286;SDS011;37364;46.974;18.916;2023-05-18T07:13:24;11.05;;;9.38;;
51286;SDS011;37364;46.974;18.916;2023-05-18T07:15:54;13.15;;;10.45;;
51286;SDS011;37364;46.974;18.916;2023-05-18T07:18:28;17.85;;;11.10;;
51286;SDS011;37364;46.974;18.916;2023-05-18T07:23:30;12.93;;;11.10;;
51286;SDS011;37364;46.974;18.916;2023-05-18T07:26:00;12.77;;;10.23;;
51286;SDS011;37364;46.974;18.916;2023-05-18T07:28:30;17.75;;;9.55;;
51286;SDS011;37364;46.974;18.916;2023-05-18T07:31:01;17.13;;;11.18;;
51286;SDS011;37364;46.974;18.916;2023-05-18T07:33:34;19.80;;;11.85;;
51286;SDS011;37364;46.974;18.916;2023-05-18T07:36:07;17.83;;;13.30;;
51286;SDS011;37364;46.974;18.916;2023-05-18T07:38:37;15.68;;;13.30;;
51286;SDS011;37364;46.974;18.916;2023-05-18T07:41:08;13.63;;;11.15;;
51286;SDS011;37364;46.974;18.916;2023-05-18T07:43:38;16.13;;;11.40;;
51286;SDS011;37364;46.974;18.916;2023-05-18T07:46:08;13.85;;;10.98;;
51286;SDS011;37364;46.974;18.916;2023-05-18T07:48:41;13.75;;;10.73;;
51286;SDS011;37364;46.974;18.916;2023-05-18T07:51:12;12.53;;;11.27;;
51286;SDS011;37364;46.974;18.916;2023-05-18T07:53:42;15.30;;;11.95;;
51286;SDS011;37364;46.974;18.916;2023-05-18T07:56:13;21.98;;;13.00;;
51286;SDS011;37364;46.974;18.916;2023-05-18T07:58:44;17.48;;;13.63;;
51286;SDS011;37364;46.974;18.916;2023-05-18T08:01:14;17.35;;;13.13;;
51286;SDS011;37364;46.974;18.916;2023-05-18T08:03:47;20.00;;;13.93;;
51286;SDS011;37364;46.974;18.916;2023-05-18T08:06:18;15.82;;;13.43;;
51286;SDS011;37364;46.974;18.916;2023-05-18T08:08:49;13.82;;;11.82;;
51286;SDS011;37364;46.974;18.916;2023-05-18T08:11:22;15.00;;;12.68;;
51286;SDS011;37364;46.974;18.916;2023-05-18T08:13:52;30.40;;;14.50;;
51286;SDS011;37364;46.974;18.916;2023-05-18T08:16:22;16.05;;;11.15;;
51286;SDS011;37364;46.974;18.916;2023-05-18T08:18:56;16.70;;;12.02;;
51286;SDS011;37364;46.974;18.916;2023-05-18T08:21:27;14.85;;;11.65;;
51286;SDS011;37364;46.974;18.916;2023-05-18T08:23:57;24.88;;;11.02;;
51286;SDS011;37364;46.974;18.916;2023-05-18T08:26:28;15.48;;;11.85;;
51286;SDS011;37364;46.974;18.916;2023-05-18T08:28:58;19.85;;;12.63;;
51286;SDS011;37364;46.974;18.916;2023-05-18T08:31:37;14.80;;;10.75;;
51286;SDS011;37364;46.974;18.916;2023-05-18T08:34:34;9.77;;;8.50;;
51286;SDS011;37364;46.974;18.916;2023-05-18T08:37:04;12.13;;;9.32;;
51286;SDS011;37364;46.974;18.916;2023-05-18T08:39:35;11.23;;;8.85;;
51286;SDS011;37364;46.974;18.916;2023-05-18T08:42:06;10.90;;;8.68;;
51286;SDS011;37364;46.974;18.916;2023-05-18T08:44:43;9.63;;;7.30;;
51286;SDS011;37364;46.974;18.916;2023-05-18T08:47:17;8.25;;;6.32;;
51286;SDS011;37364;46.974;18.916;2023-05-18T08:49:55;7.30;;;6.30;;
51286;SDS011;37364;46.974;18.916;2023-05-18T08:52:28;5.40;;;4.90;;
51286;SDS011;37364;46.974;18.916;2023-05-18T08:55:04;7.30;;;5.88;;
51286;SDS011;37364;46.974;18.916;2023-05-18T08:57:38;8.10;;;5.85;;
51286;SDS011;37364;46.974;18.916;2023-05-18T09:00:11;5.20;;;4.80;;
51286;SDS011;37364;46.974;18.916;2023-05-18T09:02:43;10.43;;;4.75;;
51286;SDS011;37364;46.974;18.916;2023-05-18T09:05:20;6.05;;;5.38;;
51286;SDS011;37364;46.974;18.916;2023-05-18T09:07:52;6.75;;;6.00;;
51286;SDS011;37364;46.974;18.916;2023-05-18T09:10:24;5.30;;;4.90;;
51286;SDS011;37364;46.974;18.916;2023-05-18T09:12:55;20.75;;;5.40;;
51286;SDS011;37364;46.974;18.916;2023-05-18T09:15:28;7.33;;;6.73;;
51286;SDS011;37364;46.974;18.916;2023-05-18T09:18:01;5.97;;;5.50;;
51286;SDS011;37364;46.974;18.916;2023-05-18T09:20:34;7.78;;;5.53;;
51286;SDS011;37364;46.974;18.916;2023-05-18T09:23:05;5.22;;;4.63;;
51286;SDS011;37364;46.974;18.916;2023-05-18T09:25:41;5.10;;;4.60;;
51286;SDS011;37364;46.974;18.916;2023-05-18T09:28:24;5.20;;;4.75;;
51286;SDS011;37364;46.974;18.916;2023-05-18T09:30:56;5.70;;;5.15;;
51286;SDS011;37364;46.974;18.916;2023-05-18T09:33:32;7.32;;;5.03;;
51286;SDS011;37364;46.974;18.916;2023-05-18T09:36:08;6.65;;;6.05;;
51286;SDS011;37364;46.974;18.916;2023-05-18T09:38:41;4.70;;;4.30;;
51286;SDS011;37364;46.974;18.916;2023-05-18T09:41:13;5.60;;;5.10;;
51286;SDS011;37364;46.974;18.916;2023-05-18T09:43:46;5.63;;;5.13;;
51286;SDS011;37364;46.974;18.916;2023-05-18T09:46:17;5.05;;;4.50;;
51286;SDS011;37364;46.974;18.916;2023-05-18T09:48:50;5.90;;;4.70;;
51286;SDS011;37364;46.974;18.916;2023-05-18T09:51:27;4.90;;;4.45;;
51286;SDS011;37364;46.974;18.916;2023-05-18T09:53:58;4.15;;;3.67;;
51286;SDS011;37364;46.974;18.916;2023-05-18T09:56:30;9.50;;;3.60;;
51286;SDS011;37364;46.974;18.916;2023-05-18T09:59:08;3.85;;;3.53;;
51286;SDS011;37364;46.974;18.916;2023-05-18T10:01:53;3.80;;;2.95;;
51286;SDS011;37364;46.974;18.916;2023-05-18T10:04:36;3.58;;;3.38;;
51286;SDS011;37364;46.974;18.916;2023-05-18T10:07:15;3.40;;;3.10;;
51286;SDS011;37364;46.974;18.916;2023-05-18T10:09:45;5.35;;;3.63;;
51286;SDS011;37364;46.974;18.916;2023-05-18T10:12:29;3.72;;;3.42;;
51286;SDS011;37364;46.974;18.916;2023-05-18T10:15:00;3.58;;;3.28;;
51286;SDS011;37364;46.974;18.916;2023-05-18T10:17:30;4.45;;;3.67;;
51286;SDS011;37364;46.974;18.916;2023-05-18T10:20:04;9.23;;;3.57;;
51286;SDS011;37364;46.974;18.916;2023-05-18T10:22:41;9.23;;;3.60;;
51286;SDS011;37364;46.974;18.916;2023-05-18T10:25:18;5.78;;;3.30;;
51286;SDS011;37364;46.974;18.916;2023-05-18T10:27:51;3.53;;;3.30;;
51286;SDS011;37364;46.974;18.916;2023-05-18T10:30:25;4.63;;;3.80;;
51286;SDS011;37364;46.974;18.916;2023-05-18T10:32:59;9.35;;;4.15;;
51286;SDS011;37364;46.974;18.916;2023-05-18T10:35:42;4.28;;;3.95;;
51286;SDS011;37364;46.974;18.916;2023-05-18T10:38:19;4.13;;;3.78;;
51286;SDS011;37364;46.974;18.916;2023-05-18T10:40:52;4.30;;;3.90;;
51286;SDS011;37364;46.974;18.916;2023-05-18T10:43:24;5.55;;;3.95;;
51286;SDS011;37364;46.974;18.916;2023-05-18T10:45:57;5.88;;;3.17;;
51286;SDS011;37364;46.974;18.916;2023-05-18T10:48:29;3.33;;;3.13;;
51286;SDS011;37364;46.974;18.916;2023-05-18T10:51:00;4.50;;;3.70;;
51286;SDS011;37364;46.974;18.916;2023-05-18T10:53:36;3.53;;;3.22;;
51286;SDS011;37364;46.974;18.916;2023-05-18T10:56:09;3.78;;;3.22;;
51286;SDS011;37364;46.974;18.916;2023-05-18T10:58:41;3.50;;;2.80;;
51286;SDS011;37364;46.974;18.916;2023-05-18T11:01:13;4.13;;;3.10;;
51286;SDS011;37364;46.974;18.916;2023-05-18T11:03:46;4.15;;;3.85;;
51286;SDS011;37364;46.974;18.916;2023-05-18T11:06:22;3.58;;;3.28;;
51286;SDS011;37364;46.974;18.916;2023-05-18T11:08:56;3.03;;;2.83;;
51286;SDS011;37364;46.974;18.916;2023-05-18T11:11:27;4.30;;;3.95;;
51286;SDS011;37364;46.974;18.916;2023-05-18T11:13:59;3.50;;;2.80;;
51286;SDS011;37364;46.974;18.916;2023-05-18T11:16:33;3.28;;;2.88;;
51286;SDS011;37364;46.974;18.916;2023-05-18T11:19:07;4.57;;;3.65;;
51286;SDS011;37364;46.974;18.916;2023-05-18T11:21:51;3.47;;;3.15;;
51286;SDS011;37364;46.974;18.916;2023-05-18T11:24:27;3.95;;;3.20;;
51286;SDS011;37364;46.974;18.916;2023-05-18T11:27:00;5.78;;;4.80;;
51286;SDS011;37364;46.974;18.916;2023-05-18T11:29:39;4.10;;;3.17;;
51286;SDS011;37364;46.974;18.916;2023-05-18T11:32:37;4.78;;;4.10;;
51286;SDS011;37364;46.974;18.916;2023-05-18T11:35:22;6.45;;;3.75;;
51286;SDS011;37364;46.974;18.916;2023-05-18T11:38:05;4.25;;;3.00;;
51286;SDS011;37364;46.974;18.916;2023-05-18T11:43:42;7.95;;;4.00;;
51286;SDS011;37364;46.974;18.916;2023-05-18T11:46:50;5.43;;;4.32;;
51286;SDS011;37364;46.974;18.916;2023-05-18T11:49:30;4.30;;;3.90;;
51286;SDS011;37364;46.974;18.916;2023-05-18T11:52:15;5.72;;;4.43;;
51286;SDS011;37364;46.974;18.916;2023-05-18T11:54:55;6.82;;;4.53;;
51286;SDS011;37364;46.974;18.916;2023-05-18T11:57:37;4.68;;;4.05;;
51286;SDS011;37364;46.974;18.916;2023-05-18T12:00:09;6.35;;;4.35;;
51286;SDS011;37364;46.974;18.916;2023-05-18T12:02:42;6.57;;;4.50;;
51286;SDS011;37364;46.974;18.916;2023-05-18T12:05:14;6.00;;;4.47;;
51286;SDS011;37364;46.974;18.916;2023-05-18T12:07:44;5.60;;;4.63;;
51286;SDS011;37364;46.974;18.916;2023-05-18T12:10:22;4.65;;;4.28;;
51286;SDS011;37364;46.974;18.916;2023-05-18T12:12:55;8.38;;;4.72;;
51286;SDS011;37364;46.974;18.916;2023-05-18T12:15:26;3.95;;;3.63;;
51286;SDS011;37364;46.974;18.916;2023-05-18T12:18:00;4.60;;;4.05;;
51286;SDS011;37364;46.974;18.916;2023-05-18T12:20:30;5.28;;;3.42;;
51286;SDS011;37364;46.974;18.916;2023-05-18T12:23:01;7.47;;;3.58;;
51286;SDS011;37364;46.974;18.916;2023-05-18T12:25:31;3.45;;;2.80;;
51286;SDS011;37364;46.974;18.916;2023-05-18T12:28:04;5.63;;;3.38;;
51286;SDS011;37364;46.974;18.916;2023-05-18T12:30:35;5.65;;;3.63;;
51286;SDS011;37364;46.974;18.916;2023-05-18T12:33:06;12.60;;;3.42;;
51286;SDS011;37364;46.974;18.916;2023-05-18T12:35:36;5.43;;;4.50;;
51286;SDS011;37364;46.974;18.916;2023-05-18T12:38:06;5.63;;;3.50;;
51286;SDS011;37364;46.974;18.916;2023-05-18T12:40:37;4.20;;;3.60;;
51286;SDS011;37364;46.974;18.916;2023-05-18T12:43:17;3.85;;;3.30;;
51286;SDS011;37364;46.974;18.916;2023-05-18T12:45:47;3.20;;;2.97;;
51286;SDS011;37364;46.974;18.916;2023-05-18T12:48:18;7.65;;;3.45;;
51286;SDS011;37364;46.974;18.916;2023-05-18T12:50:52;3.70;;;3.40;;
51286;SDS011;37364;46.974;18.916;2023-05-18T12:53:22;5.97;;;4.05;;
51286;SDS011;37364;46.974;18.916;2023-05-18T12:55:55;5.45;;;3.83;;
51286;SDS011;37364;46.974;18.916;2023-05-18T12:58:30;6.68;;;4.30;;
51286;SDS011;37364;46.974;18.916;2023-05-18T13:01:05;6.15;;;4.32;;
51286;SDS011;37364;46.974;18.916;2023-05-18T13:03:38;5.72;;;3.75;;
51286;SDS011;37364;46.974;18.916;2023-05-18T13:06:09;6.35;;;3.58;;
51286;SDS011;37364;46.974;18.916;2023-05-18T13:08:39;3.95;;;3.10;;
51286;SDS011;37364;46.974;18.916;2023-05-18T13:11:09;4.00;;;3.60;;
51286;SDS011;37364;46.974;18.916;2023-05-18T13:16:32;7.38;;;5.00;;
51286;SDS011;37364;46.974;18.916;2023-05-18T13:19:04;7.35;;;4.35;;
51286;SDS011;37364;46.974;18.916;2023-05-18T13:21:36;7.68;;;4.80;;
51286;SDS011;37364;46.974;18.916;2023-05-18T13:24:06;7.00;;;4.28;;
51286;SDS011;37364;46.974;18.916;2023-05-18T13:26:37;5.80;;;4.18;;
51286;SDS011;37364;46.974;18.916;2023-05-18T13:29:10;4.88;;;3.90;;
51286;SDS011;37364;46.974;18.916;2023-05-18T13:31:40;5.10;;;4.60;;
51286;SDS011;37364;46.974;18.916;2023-05-18T13:34:11;4.43;;;3.72;;
51286;SDS011;37364;46.974;18.916;2023-05-18T13:36:42;5.93;;;4.20;;
51286;SDS011;37364;46.974;18.916;2023-05-18T13:39:13;8.30;;;4.35;;
51286;SDS011;37364;46.974;18.916;2023-05-18T13:41:43;5.97;;;4.35;;
51286;SDS011;37364;46.974;18.916;2023-05-18T13:44:16;5.90;;;4.00;;
51286;SDS011;37364;46.974;18.916;2023-05-18T13:46:47;4.95;;;4.47;;
51286;SDS011;37364;46.974;18.916;2023-05-18T13:49:17;4.57;;;4.15;;
51286;SDS011;37364;46.974;18.916;2023-05-18T13:51:48;7.80;;;5.05;;
51286;SDS011;37364;46.974;18.916;2023-05-18T13:54:19;6.00;;;5.45;;
51286;SDS011;37364;46.974;18.916;2023-05-18T13:56:49;18.88;;;5.25;;
51286;SDS011;37364;46.974;18.916;2023-05-18T13:59:23;4.93;;;4.28;;
51286;SDS011;37364;46.974;18.916;2023-05-18T14:04:24;9.50;;;7.28;;
51286;SDS011;37364;46.974;18.916;2023-05-18T14:06:54;7.00;;;6.40;;
51286;SDS011;37364;46.974;18.916;2023-05-18T14:09:25;6.70;;;5.25;;
51286;SDS011;37364;46.974;18.916;2023-05-18T14:11:56;6.90;;;5.13;;
51286;SDS011;37364;46.974;18.916;2023-05-18T14:14:29;5.45;;;4.95;;
51286;SDS011;37364;46.974;18.916;2023-05-18T14:16:59;6.88;;;5.32;;
51286;SDS011;37364;46.974;18.916;2023-05-18T14:19:30;4.90;;;4.50;;
51286;SDS011;37364;46.974;18.916;2023-05-18T14:22:01;7.60;;;4.85;;
51286;SDS011;37364;46.974;18.916;2023-05-18T14:24:31;9.57;;;5.35;;
51286;SDS011;37364;46.974;18.916;2023-05-18T14:27:01;5.65;;;4.15;;
51286;SDS011;37364;46.974;18.916;2023-05-18T14:29:35;4.95;;;4.15;;
51286;SDS011;37364;46.974;18.916;2023-05-18T14:32:06;5.38;;;4.38;;
51286;SDS011;37364;46.974;18.916;2023-05-18T14:34:37;5.93;;;4.30;;
51286;SDS011;37364;46.974;18.916;2023-05-18T14:37:08;5.50;;;4.22;;
51286;SDS011;37364;46.974;18.916;2023-05-18T14:39:40;9.70;;;6.53;;
51286;SDS011;37364;46.974;18.916;2023-05-18T14:42:11;8.88;;;6.53;;
51286;SDS011;37364;46.974;18.916;2023-05-18T14:44:45;8.05;;;5.43;;
51286;SDS011;37364;46.974;18.916;2023-05-18T14:47:15;14.63;;;6.97;;
51286;SDS011;37364;46.974;18.916;2023-05-18T14:49:47;6.68;;;5.50;;
51286;SDS011;37364;46.974;18.916;2023-05-18T14:52:18;9.63;;;5.90;;
51286;SDS011;37364;46.974;18.916;2023-05-18T14:54:48;8.23;;;6.05;;
51286;SDS011;37364;46.974;18.916;2023-05-18T14:57:19;5.78;;;5.00;;
51286;SDS011;37364;46.974;18.916;2023-05-18T14:59:55;8.07;;;5.35;;
51286;SDS011;37364;46.974;18.916;2023-05-18T15:02:26;6.50;;;5.10;;
51286;SDS011;37364;46.974;18.916;2023-05-18T15:04:56;8.15;;;5.45;;
51286;SDS011;37364;46.974;18.916;2023-05-18T15:07:27;5.65;;;5.13;;
51286;SDS011;37364;46.974;18.916;2023-05-18T15:09:58;9.35;;;5.22;;
51286;SDS011;37364;46.974;18.916;2023-05-18T15:12:28;6.40;;;4.72;;
51286;SDS011;37364;46.974;18.916;2023-05-18T15:15:01;5.50;;;4.35;;